NOO3525 SKPE-SKBO
Flight info
| Callsign | NOO3525 |
|---|---|
| Flight time | 0h 34m |
| Altitude | 27000 |
| Route | TOLIM1D TOLIM TOLIM5W |
| Aircraft | B738/M-SDE2E3FGHIRWXY/LB1 |
Departure
| Time | 2026-04-25 16:35 |
|---|---|
| Airport | Matecaña International Airport (SKPE) |
Arrival
| Time | 2026-04-25 17:09 |
|---|---|
| Airport | El Dorado International Airport (SKBO) |
| Time | Latitude | Longitude | Altitude | Speed | Heading |
|---|---|---|---|---|---|
| 2026-04-25 15:57 | 4.81486 | -75.73791 | 4406 ft | 0 kts | 342° |
| 2026-04-25 16:23 | 4.81477 | -75.73788 | 4404 ft | 2 kts | 342° |
| 2026-04-25 16:23 | 4.81463 | -75.73784 | 4404 ft | 2 kts | 342° |
| 2026-04-25 16:24 | 4.81448 | -75.73781 | 4404 ft | 2 kts | 17° |
| 2026-04-25 16:24 | 4.81435 | -75.73789 | 4404 ft | 2 kts | 56° |
| 2026-04-25 16:24 | 4.81430 | -75.73803 | 4404 ft | 2 kts | 78° |
| 2026-04-25 16:24 | 4.81426 | -75.73817 | 4404 ft | 2 kts | 70° |
| 2026-04-25 16:25 | 4.81421 | -75.73832 | 4403 ft | 2 kts | 73° |
| 2026-04-25 16:25 | 4.81420 | -75.73836 | 4403 ft | 0 kts | 72° |
| 2026-04-25 16:29 | 4.81421 | -75.73834 | 4404 ft | 0 kts | 72° |
| 2026-04-25 16:29 | 4.81423 | -75.73827 | 4404 ft | 1 kts | 72° |
| 2026-04-25 16:29 | 4.81429 | -75.73807 | 4404 ft | 4 kts | 72° |
| 2026-04-25 16:30 | 4.81438 | -75.73778 | 4405 ft | 5 kts | 72° |
| 2026-04-25 16:30 | 4.81451 | -75.73740 | 4406 ft | 8 kts | 71° |
| 2026-04-25 16:30 | 4.81473 | -75.73674 | 4409 ft | 8 kts | 72° |
| 2026-04-25 16:30 | 4.81484 | -75.73639 | 4412 ft | 2 kts | 72° |
| 2026-04-25 16:31 | 4.81496 | -75.73604 | 4414 ft | 10 kts | 71° |
| 2026-04-25 16:31 | 4.81518 | -75.73530 | 4418 ft | 10 kts | 81° |
| 2026-04-25 16:31 | 4.81487 | -75.73480 | 4420 ft | 7 kts | 163° |
| 2026-04-25 16:31 | 4.81436 | -75.73447 | 4424 ft | 12 kts | 94° |
| 2026-04-25 16:32 | 4.81460 | -75.73370 | 4427 ft | 9 kts | 70° |
| 2026-04-25 16:32 | 4.81479 | -75.73319 | 4429 ft | 6 kts | 70° |
| 2026-04-25 16:32 | 4.81494 | -75.73277 | 4431 ft | 9 kts | 70° |
| 2026-04-25 16:32 | 4.81526 | -75.73186 | 4435 ft | 15 kts | 72° |
| 2026-04-25 16:33 | 4.81562 | -75.73096 | 4439 ft | 12 kts | 53° |
| 2026-04-25 16:33 | 4.81579 | -75.73054 | 4439 ft | 3 kts | 155° |
| 2026-04-25 16:33 | 4.81562 | -75.73073 | 4439 ft | 3 kts | 245° |
| 2026-04-25 16:33 | 4.81558 | -75.73082 | 4439 ft | 0 kts | 249° |
| 2026-04-25 16:34 | 4.81537 | -75.73143 | 4437 ft | 39 kts | 251° |
| 2026-04-25 16:34 | 4.81374 | -75.73654 | 4415 ft | 114 kts | 251° |
| 2026-04-25 16:34 | 4.81060 | -75.74628 | 4372 ft | 177 kts | 253° |
| 2026-04-25 16:35 | 4.80697 | -75.75802 | 5111 ft | 174 kts | 254° |
| 2026-04-25 16:35 | 4.80351 | -75.76919 | 5890 ft | 173 kts | 254° |
| 2026-04-25 16:35 | 4.79995 | -75.78135 | 6354 ft | 185 kts | 254° |
| 2026-04-25 16:35 | 4.79600 | -75.79318 | 7020 ft | 184 kts | 252° |
| 2026-04-25 16:36 | 4.79115 | -75.80526 | 7613 ft | 189 kts | 243° |
| 2026-04-25 16:36 | 4.78877 | -75.80905 | 7784 ft | 192 kts | 235° |
| 2026-04-25 16:36 | 4.76824 | -75.82007 | 8367 ft | 223 kts | 186° |
| 2026-04-25 16:36 | 4.75213 | -75.81906 | 8763 ft | 240 kts | 165° |
| 2026-04-25 16:37 | 4.73642 | -75.81387 | 9617 ft | 236 kts | 159° |
| 2026-04-25 16:37 | 4.72083 | -75.80829 | 9957 ft | 245 kts | 161° |
| 2026-04-25 16:37 | 4.70345 | -75.80273 | 9977 ft | 270 kts | 166° |
| 2026-04-25 16:37 | 4.68451 | -75.79862 | 9977 ft | 286 kts | 169° |
| 2026-04-25 16:38 | 4.66444 | -75.79512 | 9970 ft | 299 kts | 171° |
| 2026-04-25 16:38 | 4.64369 | -75.79150 | 9969 ft | 300 kts | 171° |
| 2026-04-25 16:38 | 4.62238 | -75.78818 | 10126 ft | 322 kts | 172° |
| 2026-04-25 16:38 | 4.59975 | -75.78506 | 10630 ft | 338 kts | 172° |
| 2026-04-25 16:39 | 4.57574 | -75.78183 | 11146 ft | 352 kts | 172° |
| 2026-04-25 16:39 | 4.55123 | -75.77850 | 11862 ft | 358 kts | 173° |
| 2026-04-25 16:39 | 4.52653 | -75.77508 | 12759 ft | 358 kts | 172° |
| 2026-04-25 16:39 | 4.50198 | -75.77029 | 13552 ft | 361 kts | 165° |
| 2026-04-25 16:40 | 4.47876 | -75.76000 | 14238 ft | 368 kts | 147° |
| 2026-04-25 16:40 | 4.46000 | -75.74265 | 14929 ft | 374 kts | 128° |
| 2026-04-25 16:40 | 4.44693 | -75.72025 | 15640 ft | 378 kts | 113° |
| 2026-04-25 16:40 | 4.43776 | -75.69537 | 16359 ft | 381 kts | 108° |
| 2026-04-25 16:41 | 4.42970 | -75.67024 | 16983 ft | 385 kts | 107° |
| 2026-04-25 16:41 | 4.42440 | -75.65314 | 17426 ft | 388 kts | 107° |
| 2026-04-25 16:41 | 4.40569 | -75.59233 | 18904 ft | 397 kts | 107° |
| 2026-04-25 16:42 | 4.39758 | -75.56609 | 19558 ft | 399 kts | 106° |
| 2026-04-25 16:42 | 4.39068 | -75.53883 | 20185 ft | 401 kts | 99° |
| 2026-04-25 16:42 | 4.38809 | -75.51134 | 20733 ft | 405 kts | 89° |
| 2026-04-25 16:42 | 4.39071 | -75.48312 | 21236 ft | 406 kts | 78° |
| 2026-04-25 16:43 | 4.39908 | -75.45606 | 21358 ft | 407 kts | 66° |
| 2026-04-25 16:43 | 4.41142 | -75.43084 | 21363 ft | 404 kts | 61° |
| 2026-04-25 16:43 | 4.42499 | -75.40631 | 21340 ft | 404 kts | 59° |
| 2026-04-25 16:43 | 4.43887 | -75.38206 | 21318 ft | 403 kts | 59° |
| 2026-04-25 16:44 | 4.45286 | -75.35767 | 21302 ft | 404 kts | 59° |
| 2026-04-25 16:44 | 4.46684 | -75.33318 | 21284 ft | 403 kts | 59° |
| 2026-04-25 16:44 | 4.48069 | -75.30874 | 21283 ft | 404 kts | 60° |
| 2026-04-25 16:44 | 4.49449 | -75.28426 | 21263 ft | 403 kts | 60° |
| 2026-04-25 16:45 | 4.50824 | -75.25977 | 21246 ft | 402 kts | 60° |
| 2026-04-25 16:45 | 4.52194 | -75.23527 | 21230 ft | 402 kts | 60° |
| 2026-04-25 16:45 | 4.53545 | -75.21104 | 21230 ft | 401 kts | 60° |
| 2026-04-25 16:45 | 4.54913 | -75.18646 | 21223 ft | 403 kts | 60° |
| 2026-04-25 16:46 | 4.56269 | -75.16209 | 21201 ft | 401 kts | 60° |
| 2026-04-25 16:46 | 4.57624 | -75.13769 | 21189 ft | 400 kts | 60° |
| 2026-04-25 16:46 | 4.58958 | -75.11367 | 21177 ft | 385 kts | 60° |
| 2026-04-25 16:46 | 4.59812 | -75.09827 | 21171 ft | 375 kts | 60° |
| 2026-04-25 16:47 | 4.61484 | -75.06808 | 21156 ft | 371 kts | 60° |
| 2026-04-25 16:47 | 4.62743 | -75.04536 | 21134 ft | 375 kts | 60° |
| 2026-04-25 16:47 | 4.64011 | -75.02245 | 21113 ft | 374 kts | 60° |
| 2026-04-25 16:47 | 4.65271 | -74.99967 | 21096 ft | 374 kts | 60° |
| 2026-04-25 16:48 | 4.66534 | -74.97688 | 21091 ft | 373 kts | 59° |
| 2026-04-25 16:48 | 4.67790 | -74.95428 | 21091 ft | 373 kts | 60° |
| 2026-04-25 16:48 | 4.69047 | -74.93166 | 21102 ft | 372 kts | 60° |
| 2026-04-25 16:48 | 4.70308 | -74.90894 | 21099 ft | 374 kts | 60° |
| 2026-04-25 16:49 | 4.71585 | -74.88605 | 21088 ft | 372 kts | 60° |
| 2026-04-25 16:49 | 4.72850 | -74.86341 | 21025 ft | 379 kts | 59° |
| 2026-04-25 16:49 | 4.74322 | -74.84106 | 20693 ft | 384 kts | 50° |
| 2026-04-25 16:49 | 4.76237 | -74.82314 | 20498 ft | 372 kts | 34° |
| 2026-04-25 16:50 | 4.78481 | -74.81135 | 20355 ft | 357 kts | 20° |
| 2026-04-25 16:50 | 4.80799 | -74.80385 | 20205 ft | 345 kts | 14° |
| 2026-04-25 16:50 | 4.83126 | -74.79939 | 19978 ft | 336 kts | 4° |
| 2026-04-25 16:50 | 4.85477 | -74.79999 | 19587 ft | 334 kts | 353° |
| 2026-04-25 16:51 | 4.87765 | -74.80317 | 19132 ft | 333 kts | 350° |
| 2026-04-25 16:51 | 4.90074 | -74.80705 | 18655 ft | 334 kts | 349° |
| 2026-04-25 16:51 | 4.92340 | -74.81100 | 18321 ft | 329 kts | 350° |
| 2026-04-25 16:51 | 4.93846 | -74.81287 | 18035 ft | 328 kts | 356° |
| 2026-04-25 16:52 | 4.96891 | -74.80974 | 17412 ft | 330 kts | 13° |
| 2026-04-25 16:52 | 4.99093 | -74.80321 | 16982 ft | 330 kts | 17° |
| 2026-04-25 16:52 | 5.01271 | -74.79572 | 16692 ft | 326 kts | 18° |
| 2026-04-25 16:52 | 5.03386 | -74.78843 | 16636 ft | 321 kts | 17° |
| 2026-04-25 16:53 | 5.07684 | -74.77440 | 16639 ft | 325 kts | 16° |
| 2026-04-25 16:53 | 5.09851 | -74.76701 | 16653 ft | 325 kts | 20° |
| 2026-04-25 16:53 | 5.11874 | -74.75708 | 16632 ft | 326 kts | 33° |
| 2026-04-25 16:54 | 5.13673 | -74.74284 | 16592 ft | 328 kts | 41° |
| 2026-04-25 16:54 | 5.15299 | -74.72715 | 16615 ft | 326 kts | 44° |
| 2026-04-25 16:54 | 5.16914 | -74.71097 | 16634 ft | 328 kts | 43° |
| 2026-04-25 16:54 | 5.18551 | -74.69508 | 16660 ft | 328 kts | 43° |
| 2026-04-25 16:55 | 5.20209 | -74.67932 | 16627 ft | 327 kts | 41° |
| 2026-04-25 16:55 | 5.21862 | -74.66373 | 16631 ft | 323 kts | 42° |
| 2026-04-25 16:55 | 5.23490 | -74.64791 | 16652 ft | 328 kts | 45° |
| 2026-04-25 16:55 | 5.24936 | -74.63020 | 16685 ft | 329 kts | 56° |
| 2026-04-25 16:56 | 5.25980 | -74.60996 | 16664 ft | 328 kts | 66° |
| 2026-04-25 16:56 | 5.26803 | -74.58861 | 16656 ft | 328 kts | 69° |
| 2026-04-25 16:56 | 5.27575 | -74.56720 | 16674 ft | 328 kts | 69° |
| 2026-04-25 16:56 | 5.28350 | -74.54573 | 16684 ft | 327 kts | 69° |
| 2026-04-25 16:57 | 5.29137 | -74.52429 | 16688 ft | 329 kts | 68° |
| 2026-04-25 16:57 | 5.29671 | -74.50994 | 16675 ft | 328 kts | 69° |
| 2026-04-25 16:57 | 5.30647 | -74.48109 | 16711 ft | 327 kts | 74° |
| 2026-04-25 16:57 | 5.30999 | -74.45875 | 16730 ft | 328 kts | 87° |
| 2026-04-25 16:58 | 5.30936 | -74.43595 | 16730 ft | 326 kts | 94° |
| 2026-04-25 16:58 | 5.30734 | -74.41319 | 16754 ft | 325 kts | 95° |
| 2026-04-25 16:58 | 5.30518 | -74.39074 | 16792 ft | 325 kts | 95° |
| 2026-04-25 16:58 | 5.30075 | -74.36847 | 16771 ft | 328 kts | 107° |
| 2026-04-25 16:59 | 5.29077 | -74.34797 | 16778 ft | 328 kts | 126° |
| 2026-04-25 16:59 | 5.27398 | -74.33259 | 16789 ft | 331 kts | 148° |
| 2026-04-25 16:59 | 5.25267 | -74.32389 | 16788 ft | 333 kts | 165° |
| 2026-04-25 16:59 | 5.22950 | -74.32057 | 16795 ft | 332 kts | 180° |
| 2026-04-25 17:00 | 5.20665 | -74.32389 | 16814 ft | 331 kts | 195° |
| 2026-04-25 17:00 | 5.18468 | -74.33076 | 16810 ft | 333 kts | 199° |
| 2026-04-25 17:00 | 5.16267 | -74.33843 | 16815 ft | 330 kts | 199° |
| 2026-04-25 17:00 | 5.14123 | -74.34573 | 16717 ft | 327 kts | 198° |
| 2026-04-25 17:01 | 5.11954 | -74.35274 | 16415 ft | 325 kts | 197° |
| 2026-04-25 17:01 | 5.09776 | -74.35953 | 15990 ft | 326 kts | 196° |
| 2026-04-25 17:01 | 5.07619 | -74.36610 | 15572 ft | 327 kts | 197° |
| 2026-04-25 17:01 | 5.05428 | -74.37269 | 15138 ft | 327 kts | 197° |
| 2026-04-25 17:02 | 5.03235 | -74.37930 | 14734 ft | 326 kts | 198° |
| 2026-04-25 17:02 | 5.01070 | -74.38589 | 14336 ft | 325 kts | 197° |
| 2026-04-25 17:02 | 4.98887 | -74.39256 | 13922 ft | 325 kts | 198° |
| 2026-04-25 17:02 | 4.96717 | -74.39915 | 13476 ft | 325 kts | 197° |
| 2026-04-25 17:03 | 4.94561 | -74.40505 | 13095 ft | 323 kts | 192° |
| 2026-04-25 17:03 | 4.92356 | -74.40716 | 12936 ft | 313 kts | 176° |
| 2026-04-25 17:03 | 4.90336 | -74.40063 | 12901 ft | 300 kts | 147° |
| 2026-04-25 17:03 | 4.88893 | -74.38639 | 12904 ft | 284 kts | 127° |
| 2026-04-25 17:04 | 4.87797 | -74.37055 | 12957 ft | 270 kts | 124° |
| 2026-04-25 17:04 | 4.86767 | -74.35509 | 12983 ft | 258 kts | 124° |
| 2026-04-25 17:04 | 4.85741 | -74.34068 | 12767 ft | 254 kts | 127° |
| 2026-04-25 17:04 | 4.84660 | -74.32663 | 12444 ft | 254 kts | 128° |
| 2026-04-25 17:05 | 4.83576 | -74.31269 | 12116 ft | 252 kts | 127° |
| 2026-04-25 17:05 | 4.81519 | -74.28558 | 11489 ft | 232 kts | 127° |
| 2026-04-25 17:05 | 4.80580 | -74.27325 | 11235 ft | 216 kts | 127° |
| 2026-04-25 17:06 | 4.79676 | -74.26140 | 10902 ft | 205 kts | 127° |
| 2026-04-25 17:06 | 4.78840 | -74.25042 | 10693 ft | 189 kts | 126° |
| 2026-04-25 17:06 | 4.78056 | -74.24014 | 10425 ft | 183 kts | 127° |
| 2026-04-25 17:06 | 4.77292 | -74.23014 | 10197 ft | 180 kts | 127° |
| 2026-04-25 17:07 | 4.76529 | -74.22012 | 9962 ft | 181 kts | 126° |
| 2026-04-25 17:07 | 4.75763 | -74.21005 | 9742 ft | 185 kts | 127° |
| 2026-04-25 17:07 | 4.74981 | -74.19979 | 9497 ft | 183 kts | 127° |
| 2026-04-25 17:07 | 4.74214 | -74.18961 | 9268 ft | 183 kts | 126° |
| 2026-04-25 17:08 | 4.73445 | -74.17949 | 8991 ft | 180 kts | 128° |
| 2026-04-25 17:08 | 4.72690 | -74.17003 | 8836 ft | 170 kts | 126° |
| 2026-04-25 17:08 | 4.71981 | -74.16053 | 8587 ft | 170 kts | 126° |
| 2026-04-25 17:08 | 4.71260 | -74.15108 | 8406 ft | 170 kts | 126° |
| 2026-04-25 17:09 | 4.70590 | -74.14210 | 8371 ft | 142 kts | 129° |
| 2026-04-25 17:09 | 4.70107 | -74.13573 | 8372 ft | 86 kts | 128° |
| 2026-04-25 17:09 | 4.69882 | -74.13277 | 8372 ft | 31 kts | 126° |
| 2026-04-25 17:09 | 4.69756 | -74.13112 | 8372 ft | 28 kts | 127° |
| 2026-04-25 17:10 | 4.69643 | -74.12959 | 8373 ft | 26 kts | 127° |
| 2026-04-25 17:10 | 4.69537 | -74.12819 | 8373 ft | 23 kts | 126° |
| 2026-04-25 17:10 | 4.69441 | -74.12692 | 8373 ft | 21 kts | 128° |
| 2026-04-25 17:10 | 4.69353 | -74.12578 | 8373 ft | 19 kts | 127° |
| 2026-04-25 17:11 | 4.69256 | -74.12502 | 8373 ft | 17 kts | 184° |
| 2026-04-25 17:11 | 4.69152 | -74.12543 | 8373 ft | 15 kts | 233° |
| 2026-04-25 17:11 | 4.69149 | -74.12638 | 8373 ft | 13 kts | 297° |
| 2026-04-25 17:11 | 4.69198 | -74.12707 | 8373 ft | 11 kts | 303° |
| 2026-04-25 17:12 | 4.69241 | -74.12764 | 8373 ft | 9 kts | 307° |
| 2026-04-25 17:12 | 4.69286 | -74.12824 | 8373 ft | 15 kts | 307° |
| 2026-04-25 17:12 | 4.69376 | -74.12942 | 8373 ft | 22 kts | 308° |
| 2026-04-25 17:12 | 4.69469 | -74.13063 | 8372 ft | 20 kts | 307° |
| 2026-04-25 17:13 | 4.69552 | -74.13173 | 8372 ft | 18 kts | 306° |
| 2026-04-25 17:13 | 4.69598 | -74.13239 | 8372 ft | 14 kts | 291° |
| 2026-04-25 17:13 | 4.69600 | -74.13354 | 8372 ft | 11 kts | 310° |
| 2026-04-25 17:13 | 4.69648 | -74.13413 | 8372 ft | 9 kts | 307° |
| 2026-04-25 17:14 | 4.69684 | -74.13464 | 8372 ft | 7 kts | 306° |
| 2026-04-25 17:14 | 4.69720 | -74.13509 | 8372 ft | 8 kts | 308° |
| 2026-04-25 17:14 | 4.69758 | -74.13557 | 8372 ft | 8 kts | 306° |
| 2026-04-25 17:14 | 4.69789 | -74.13607 | 8372 ft | 7 kts | 274° |
| 2026-04-25 17:15 | 4.69749 | -74.13638 | 8371 ft | 7 kts | 188° |
| 2026-04-25 17:15 | 4.69704 | -74.13622 | 8372 ft | 6 kts | 155° |
| 2026-04-25 17:15 | 4.69666 | -74.13642 | 8371 ft | 6 kts | 217° |
| 2026-04-25 17:15 | 4.69634 | -74.13666 | 8371 ft | 3 kts | 217° |
| 2026-04-25 17:16 | 4.69630 | -74.13670 | 8371 ft | 0 kts | 217° |